createdAt,value
2022-09-23T00:02:22.690Z,98968.56
2022-09-23T00:05:26.893Z,98966.63
2022-09-23T00:08:29.680Z,98959.50
2022-09-23T00:11:32.378Z,98967.63
2022-09-23T00:14:35.039Z,98960.50
2022-09-23T00:17:38.061Z,98957.97
2022-09-23T00:20:42.088Z,98958.22
2022-09-23T00:23:44.970Z,98950.94
2022-09-23T00:26:47.681Z,98952.84
2022-09-23T00:29:50.360Z,98946.09
2022-09-23T00:32:53.985Z,98943.13
2022-09-23T00:36:00.792Z,98943.22
2022-09-23T00:39:04.553Z,98942.59
2022-09-23T00:42:08.091Z,98944.31
2022-09-23T00:45:12.073Z,98944.94
2022-09-23T00:48:17.091Z,98943.88
2022-09-23T00:51:22.520Z,98943.38
2022-09-23T00:54:27.563Z,98945.50
2022-09-23T00:57:30.695Z,98942.47
2022-09-23T01:00:35.592Z,98947.66
2022-09-23T01:03:38.282Z,98937.88
2022-09-23T01:06:42.594Z,98932.22
2022-09-23T01:09:45.961Z,98929.94
2022-09-23T01:12:57.873Z,98927.91
2022-09-23T01:16:06.898Z,98926.59
2022-09-23T01:19:18.186Z,98924.53
2022-09-23T01:22:26.307Z,98929.81
2022-09-23T01:25:37.760Z,98934.91
2022-09-23T01:29:03.490Z,98937.75
2022-09-23T01:32:12.787Z,98933.09
2022-09-23T01:35:23.860Z,98932.56
2022-09-23T01:38:31.678Z,98921.22
2022-09-23T01:41:52.527Z,98919.28
2022-09-23T01:44:58.110Z,98920.94
2022-09-23T01:48:04.215Z,98917.69
2022-09-23T01:51:09.657Z,98906.94
2022-09-23T01:54:15.871Z,98901.03
2022-09-23T01:57:24.339Z,98906.94
2022-09-23T02:00:30.710Z,98910.50
2022-09-23T02:03:36.893Z,98908.03
2022-09-23T02:06:43.384Z,98904.53
2022-09-23T02:09:48.193Z,98907.03
2022-09-23T02:12:54.099Z,98897.53
2022-09-23T02:15:59.003Z,98895.31
2022-09-23T02:19:06.942Z,98884.53
2022-09-23T02:22:10.908Z,98894.75
2022-09-23T02:25:16.299Z,98898.53
2022-09-23T02:28:21.388Z,98906.53
2022-09-23T02:31:29.012Z,98909.63
2022-09-23T02:34:39.482Z,98922.34
2022-09-23T02:37:44.706Z,98923.59
2022-09-23T02:40:51.541Z,98929.16
2022-09-23T02:43:57.140Z,98933.44
2022-09-23T02:46:59.889Z,98928.34
2022-09-23T02:50:04.078Z,98923.16
2022-09-23T02:53:08.570Z,98920.66
2022-09-23T02:56:15.327Z,98918.34
2022-09-23T02:59:19.539Z,98913.09
2022-09-23T03:02:39.976Z,98917.44
2022-09-23T03:05:48.016Z,98920.84
2022-09-23T03:08:55.893Z,98916.53
2022-09-23T03:12:05.470Z,98921.91
2022-09-23T03:15:13.560Z,98914.16
2022-09-23T03:18:18.293Z,98910.91
2022-09-23T03:21:25.088Z,98910.28
2022-09-23T03:24:28.867Z,98918.97
2022-09-23T03:27:33.658Z,98924.53
2022-09-23T03:30:37.139Z,98915.00
2022-09-23T03:33:41.843Z,98908.19
2022-09-23T03:36:53.876Z,98910.81
2022-09-23T03:40:00.933Z,98918.88
2022-09-23T03:43:05.058Z,98902.75
2022-09-23T03:46:08.802Z,98884.88
2022-09-23T03:49:15.946Z,98880.91
2022-09-23T03:52:21.503Z,98889.91
2022-09-23T03:55:24.159Z,98906.41
2022-09-23T03:58:26.849Z,98918.78
2022-09-23T04:01:29.791Z,98913.69
2022-09-23T04:04:34.351Z,98909.56
2022-09-23T04:07:38.571Z,98908.03
2022-09-23T04:10:41.863Z,98897.91
2022-09-23T04:13:44.556Z,98903.25
2022-09-23T04:16:47.699Z,98907.38
2022-09-23T04:19:50.472Z,98913.03
2022-09-23T04:22:54.512Z,98903.66
2022-09-23T04:25:57.249Z,98911.19
2022-09-23T04:29:00.211Z,98922.72
2022-09-23T04:32:03.076Z,98910.44
2022-09-23T04:35:06.202Z,98915.53
2022-09-23T04:38:11.319Z,98912.53
2022-09-23T04:41:14.294Z,98922.28
2022-09-23T04:44:17.261Z,98922.00
2022-09-23T04:47:19.925Z,98922.69
2022-09-23T04:50:22.663Z,98922.88
2022-09-23T04:53:26.671Z,98904.88
2022-09-23T04:56:32.624Z,98910.97
2022-09-23T04:59:35.282Z,98915.53
2022-09-23T05:02:43.086Z,98901.75
2022-09-23T05:05:46.159Z,98902.78
2022-09-23T05:08:51.466Z,98896.88
2022-09-23T05:11:54.187Z,98900.63
2022-09-23T05:14:56.930Z,98908.72
2022-09-23T05:17:59.778Z,98923.84
2022-09-23T05:21:02.907Z,98931.81
2022-09-23T05:24:07.301Z,98928.06
2022-09-23T05:27:10.125Z,98919.69
2022-09-23T05:30:13.046Z,98916.72
2022-09-23T05:33:15.681Z,98917.66
2022-09-23T05:36:18.913Z,98911.25
2022-09-23T05:39:22.919Z,98901.22
2022-09-23T05:42:25.555Z,98894.00
2022-09-23T05:45:29.033Z,98912.16
2022-09-23T05:48:32.482Z,98916.28
2022-09-23T05:51:35.850Z,98918.22
2022-09-23T05:54:40.375Z,98915.81
2022-09-23T05:57:43.201Z,98911.47
2022-09-23T06:00:45.977Z,98902.41
2022-09-23T06:03:50.170Z,98897.13
2022-09-23T06:06:53.421Z,98899.00
2022-09-23T06:09:57.471Z,98911.78
2022-09-23T06:13:00.124Z,98906.44
2022-09-23T06:16:03.331Z,98910.28
2022-09-23T06:19:07.011Z,98906.69
2022-09-23T06:22:11.059Z,98905.03
2022-09-23T06:25:15.166Z,98904.66
2022-09-23T06:28:19.047Z,98907.06
2022-09-23T06:31:21.841Z,98913.63
2022-09-23T06:34:24.520Z,98919.34
2022-09-23T06:37:27.274Z,98916.69
2022-09-23T06:40:32.160Z,98920.84
2022-09-23T06:43:35.177Z,98914.72
2022-09-23T06:46:37.921Z,98907.28
2022-09-23T06:49:40.756Z,98918.34
2022-09-23T06:52:43.615Z,98921.59
2022-09-23T06:55:47.672Z,98925.56
2022-09-23T06:58:52.654Z,98920.69
2022-09-23T07:01:55.600Z,98923.09
2022-09-23T07:04:58.360Z,98909.88
2022-09-23T07:08:01.144Z,98909.78
2022-09-23T07:11:06.769Z,98912.28
2022-09-23T07:14:10.897Z,98921.31
2022-09-23T07:17:13.683Z,98915.78
2022-09-23T07:20:18.022Z,98918.41
2022-09-23T07:23:20.686Z,98912.94
2022-09-23T07:26:24.956Z,98913.38
2022-09-23T07:29:28.122Z,98908.53
2022-09-23T07:32:42.590Z,98920.38
2022-09-23T07:35:50.652Z,98927.47
2022-09-23T07:38:53.393Z,98920.69
2022-09-23T07:41:58.445Z,98938.13
2022-09-23T07:45:02.230Z,98920.84
2022-09-23T07:48:07.439Z,98917.81
2022-09-23T07:51:10.679Z,98909.16
2022-09-23T07:54:14.636Z,98912.31
2022-09-23T07:57:21.366Z,98905.88
2022-09-23T08:00:24.077Z,98901.72
2022-09-23T08:03:26.705Z,98890.34
2022-09-23T08:06:29.430Z,98881.38
2022-09-23T08:09:38.332Z,98878.75
2022-09-23T08:12:42.406Z,98892.47
2022-09-23T08:15:53.243Z,98893.50
2022-09-23T08:18:58.394Z,98900.88
2022-09-23T08:22:01.202Z,98906.72
2022-09-23T08:25:04.371Z,98898.75
2022-09-23T08:28:10.313Z,98888.34
2022-09-23T08:31:13.671Z,98896.09
2022-09-23T08:34:18.040Z,98885.56
2022-09-23T08:37:20.707Z,98884.91
2022-09-23T08:40:23.583Z,98894.91
2022-09-23T08:43:32.811Z,98895.06
2022-09-23T08:46:37.939Z,98895.91
2022-09-23T08:49:42.895Z,98902.44
2022-09-23T08:52:50.370Z,98911.44
2022-09-23T08:55:54.659Z,98912.09
2022-09-23T08:59:03.014Z,98914.28
2022-09-23T09:02:07.801Z,98908.28
2022-09-23T09:05:14.465Z,98903.63
2022-09-23T09:08:24.020Z,98906.78
2022-09-23T09:11:31.316Z,98907.47
2022-09-23T09:14:38.755Z,98908.13
2022-09-23T09:17:47.425Z,98904.97
2022-09-23T09:20:54.877Z,98907.66
2022-09-23T09:23:58.243Z,98918.97
2022-09-23T09:27:02.140Z,98907.66
2022-09-23T09:30:13.735Z,98906.28
2022-09-23T09:33:18.039Z,98902.31
2022-09-23T09:36:24.830Z,98901.47
2022-09-23T09:39:28.549Z,98895.66
2022-09-23T09:42:39.110Z,98894.16
2022-09-23T09:45:57.830Z,98900.16
2022-09-23T09:49:06.571Z,98895.97
2022-09-23T09:52:13.014Z,98904.63
2022-09-23T09:55:25.701Z,98905.66
2022-09-23T09:58:31.239Z,98908.97
2022-09-23T10:01:35.891Z,98908.31
2022-09-23T10:04:39.546Z,98904.34
2022-09-23T10:07:42.312Z,98900.81
2022-09-23T10:10:54.935Z,98907.47
2022-09-23T10:14:12.515Z,98904.16
2022-09-23T10:17:20.578Z,98900.16
2022-09-23T10:20:23.344Z,98905.31
2022-09-23T10:23:29.411Z,98905.50
2022-09-23T10:26:33.702Z,98898.78
2022-09-23T10:29:39.603Z,98899.28
2022-09-23T10:32:58.179Z,98886.25
2022-09-23T10:36:01.893Z,98901.59
2022-09-23T10:39:19.483Z,98898.78
2022-09-23T10:42:46.548Z,98903.28
2022-09-23T10:46:07.340Z,98891.25
2022-09-23T10:49:28.674Z,98876.22
2022-09-23T10:52:46.130Z,98880.69
2022-09-23T10:55:56.498Z,98884.34
2022-09-23T10:59:21.989Z,98881.00
2022-09-23T11:02:43.010Z,98881.84
2022-09-23T11:05:48.799Z,98874.53
2022-09-23T11:08:58.756Z,98876.16
2022-09-23T11:12:10.194Z,98881.69
2022-09-23T11:15:28.640Z,98875.41
2022-09-23T11:18:52.667Z,98877.06
2022-09-23T11:22:02.470Z,98880.03
2022-09-23T11:25:14.487Z,98875.69
2022-09-23T11:28:33.227Z,98875.50
2022-09-23T11:31:38.989Z,98876.63
2022-09-23T11:34:54.849Z,98884.25
2022-09-23T11:37:59.339Z,98891.16
2022-09-23T11:41:09.370Z,98893.00
2022-09-23T11:44:16.323Z,98887.31
2022-09-23T11:47:23.331Z,98883.81
2022-09-23T11:50:30.211Z,98890.97
2022-09-23T11:53:37.669Z,98884.78
2022-09-23T11:56:47.915Z,98884.06
2022-09-23T11:59:55.003Z,98873.38
2022-09-23T12:03:05.864Z,98877.84
2022-09-23T12:06:13.429Z,98877.19
2022-09-23T12:09:41.003Z,98862.53
2022-09-23T12:12:54.240Z,98873.38
2022-09-23T12:16:06.300Z,98864.13
2022-09-23T12:19:18.949Z,98857.25
2022-09-23T12:22:31.888Z,98849.84
2022-09-23T12:25:39.061Z,98853.91
2022-09-23T12:28:46.266Z,98851.78
2022-09-23T12:31:50.108Z,98848.59
2022-09-23T12:34:56.792Z,98850.75
2022-09-23T12:38:03.021Z,98852.69
2022-09-23T12:41:25.915Z,98863.69
2022-09-23T12:44:38.260Z,98867.97
2022-09-23T12:47:42.410Z,98862.94
2022-09-23T12:50:55.947Z,98863.41
2022-09-23T12:54:14.208Z,98870.41
2022-09-23T12:57:38.026Z,98862.88
2022-09-23T13:01:02.518Z,98861.16
2022-09-23T13:04:24.010Z,98851.41
2022-09-23T13:07:30.892Z,98856.94
2022-09-23T13:10:36.898Z,98857.69
2022-09-23T13:13:41.748Z,98862.66
2022-09-23T13:16:46.259Z,98865.34
2022-09-23T13:19:58.375Z,98875.44
2022-09-23T13:23:08.140Z,98873.66
2022-09-23T13:26:13.120Z,98880.91
2022-09-23T13:29:18.716Z,98888.00
2022-09-23T13:32:26.619Z,98878.84
2022-09-23T13:35:34.884Z,98886.09
2022-09-23T13:38:38.624Z,98879.78
2022-09-23T13:41:41.318Z,98875.09
2022-09-23T13:44:44.175Z,98879.50
2022-09-23T13:47:49.177Z,98883.75
2022-09-23T13:50:53.405Z,98880.75
2022-09-23T13:53:57.105Z,98878.97
2022-09-23T13:57:00.330Z,98881.31
2022-09-23T14:00:04.079Z,98880.50
2022-09-23T14:03:36.519Z,98887.88
2022-09-23T14:06:42.117Z,98888.44
2022-09-23T14:09:48.152Z,98886.66
2022-09-23T14:12:52.420Z,98891.84
2022-09-23T14:16:01.010Z,98885.16
2022-09-23T14:19:03.793Z,98883.81
2022-09-23T14:22:25.953Z,98882.88
2022-09-23T14:25:28.687Z,98885.44
2022-09-23T14:28:31.619Z,98877.91
2022-09-23T14:31:34.407Z,98875.25
2022-09-23T14:34:40.763Z,98870.75
2022-09-23T14:38:03.064Z,98868.44
2022-09-23T14:41:18.185Z,98862.59
2022-09-23T14:44:26.142Z,98869.25
2022-09-23T14:47:29.772Z,98867.56
2022-09-23T14:50:47.253Z,98858.22
2022-09-23T14:53:51.752Z,98870.19
2022-09-23T14:56:57.978Z,98877.75
2022-09-23T15:00:02.565Z,98877.41
2022-09-23T15:03:14.637Z,98883.38
2022-09-23T15:06:17.817Z,98885.53
2022-09-23T15:09:24.952Z,98884.84
2022-09-23T15:12:28.716Z,98881.72
2022-09-23T15:15:31.444Z,98883.22
2022-09-23T15:18:37.143Z,98884.28
2022-09-23T15:21:41.137Z,98882.75
2022-09-23T15:24:46.739Z,98891.56
2022-09-23T15:28:00.077Z,98891.75
2022-09-23T15:31:06.331Z,98886.94
2022-09-23T15:34:15.127Z,98889.25
2022-09-23T15:37:18.424Z,98887.09
2022-09-23T15:40:25.255Z,98886.59
2022-09-23T15:43:29.015Z,98896.25
2022-09-23T15:46:35.215Z,98886.25
2022-09-23T15:49:46.357Z,98888.56
2022-09-23T15:52:52.695Z,98889.53
2022-09-23T15:56:00.593Z,98882.41
2022-09-23T15:59:04.947Z,98887.97
2022-09-23T16:02:16.792Z,98890.16
2022-09-23T16:05:26.077Z,98882.41
2022-09-23T16:08:29.536Z,98890.75
2022-09-23T16:11:36.287Z,98895.72
2022-09-23T16:14:40.252Z,98889.69
2022-09-23T16:17:46.459Z,98894.19
2022-09-23T16:20:53.176Z,98901.81
2022-09-23T16:23:59.595Z,98898.31
2022-09-23T16:27:07.910Z,98908.25
2022-09-23T16:30:11.485Z,98903.41
2022-09-23T16:33:14.713Z,98901.28
2022-09-23T16:36:22.158Z,98904.66
2022-09-23T16:39:26.178Z,98906.84
2022-09-23T16:42:30.222Z,98902.41
2022-09-23T16:45:32.967Z,98890.91
2022-09-23T16:48:48.301Z,98903.44
2022-09-23T16:51:56.942Z,98901.72
2022-09-23T16:55:02.645Z,98911.75
2022-09-23T16:58:12.211Z,98918.03
2022-09-23T17:01:34.791Z,98913.28
2022-09-23T17:04:39.429Z,98904.91
2022-09-23T17:07:45.290Z,98900.44
2022-09-23T17:10:57.174Z,98903.69
2022-09-23T17:14:01.454Z,98893.69
2022-09-23T17:17:04.214Z,98892.69
2022-09-23T17:20:10.298Z,98900.41
2022-09-23T17:23:14.283Z,98907.53
2022-09-23T17:26:18.120Z,98906.31
2022-09-23T17:29:22.360Z,98908.41
2022-09-23T17:32:26.049Z,98909.97
2022-09-23T17:35:29.336Z,98902.63
2022-09-23T17:38:33.627Z,98902.00
2022-09-23T17:41:39.644Z,98898.53
2022-09-23T17:44:44.749Z,98895.72
2022-09-23T17:47:51.800Z,98893.31
2022-09-23T17:50:57.699Z,98887.03
2022-09-23T17:54:00.458Z,98877.03
2022-09-23T17:57:03.791Z,98883.09
2022-09-23T18:00:22.528Z,98872.06
2022-09-23T18:03:34.035Z,98875.63
2022-09-23T18:06:46.387Z,98876.28
2022-09-23T18:09:49.931Z,98876.28
2022-09-23T18:12:53.562Z,98880.09
2022-09-23T18:16:06.995Z,98880.25
2022-09-23T18:19:13.053Z,98866.09
2022-09-23T18:22:21.901Z,98868.25
2022-09-23T18:25:39.240Z,98872.84
2022-09-23T18:28:50.590Z,98867.16
2022-09-23T18:32:00.636Z,98872.78
2022-09-23T18:35:03.901Z,98869.50
2022-09-23T18:38:06.970Z,98865.75
2022-09-23T18:41:12.098Z,98869.16
2022-09-23T18:44:16.087Z,98862.03
2022-09-23T18:47:38.497Z,98863.16
2022-09-23T18:50:45.668Z,98867.91
2022-09-23T18:53:53.216Z,98860.81
2022-09-23T18:56:56.236Z,98860.16
2022-09-23T19:00:13.259Z,98850.28
2022-09-23T19:03:19.386Z,98864.06
2022-09-23T19:06:24.588Z,98851.16
2022-09-23T19:09:32.692Z,98861.56
2022-09-23T19:12:36.608Z,98858.84
2022-09-23T19:15:40.552Z,98844.75
2022-09-23T19:18:47.914Z,98847.22
2022-09-23T19:21:53.179Z,98854.00
2022-09-23T19:24:56.016Z,98862.78
2022-09-23T19:28:00.743Z,98852.16
2022-09-23T19:31:11.524Z,98847.44
2022-09-23T19:34:18.798Z,98849.94
2022-09-23T19:37:22.918Z,98849.72
2022-09-23T19:40:25.967Z,98856.34
2022-09-23T19:43:29.853Z,98850.75
2022-09-23T19:46:33.563Z,98852.84
2022-09-23T19:49:37.847Z,98857.88
2022-09-23T19:52:41.730Z,98857.06
2022-09-23T19:55:44.682Z,98851.53
2022-09-23T19:58:48.519Z,98858.91
2022-09-23T20:01:51.319Z,98849.72
2022-09-23T20:04:55.440Z,98862.69
2022-09-23T20:07:59.134Z,98859.41
2022-09-23T20:11:12.381Z,98857.59
2022-09-23T20:14:15.245Z,98860.19
2022-09-23T20:17:20.879Z,98849.94
2022-09-23T20:20:24.953Z,98855.38
2022-09-23T20:23:29.093Z,98856.63
2022-09-23T20:26:49.212Z,98848.72
2022-09-23T20:29:52.237Z,98856.19
2022-09-23T20:32:54.950Z,98850.31
2022-09-23T20:36:00.982Z,98855.25
2022-09-23T20:39:05.806Z,98853.88
2022-09-23T20:42:09.356Z,98854.72
2022-09-23T20:45:12.103Z,98845.69
2022-09-23T20:48:14.752Z,98852.16
2022-09-23T20:51:18.940Z,98848.13
2022-09-23T20:54:23.192Z,98847.06
2022-09-23T20:57:27.691Z,98847.59
2022-09-23T21:00:30.485Z,98835.34
2022-09-23T21:03:33.905Z,98837.16
2022-09-23T21:06:38.888Z,98835.03
2022-09-23T21:09:41.648Z,98831.47
2022-09-23T21:12:46.021Z,98835.72
2022-09-23T21:15:48.794Z,98826.69
2022-09-23T21:18:51.896Z,98832.00
2022-09-23T21:21:56.246Z,98837.03
2022-09-23T21:28:22.764Z,98831.47
2022-09-23T21:31:26.394Z,98832.59
2022-09-23T21:34:32.857Z,98833.31
2022-09-23T21:37:36.897Z,98828.50
2022-09-23T21:40:53.467Z,98821.91
2022-09-23T21:43:56.386Z,98819.53
2022-09-23T21:46:59.399Z,98816.03
2022-09-23T21:50:02.626Z,98819.63
2022-09-23T21:53:07.211Z,98812.22
2022-09-23T21:56:10.963Z,98805.97
2022-09-23T21:59:13.842Z,98804.69
2022-09-23T22:02:17.313Z,98802.66
2022-09-23T22:05:23.182Z,98806.84
2022-09-23T22:08:27.412Z,98804.72
2022-09-23T22:11:48.671Z,98805.97
2022-09-23T22:14:52.468Z,98816.00
2022-09-23T22:17:55.608Z,98811.22
2022-09-23T22:20:59.741Z,98804.38
2022-09-23T22:24:05.093Z,98798.53
2022-09-23T22:27:07.946Z,98795.09
2022-09-23T22:30:28.557Z,98802.59
2022-09-23T22:33:31.202Z,98796.28
2022-09-23T22:36:33.899Z,98788.53
2022-09-23T22:39:38.057Z,98789.59
2022-09-23T22:42:42.350Z,98780.13
2022-09-23T22:45:49.802Z,98779.47
2022-09-23T22:48:53.435Z,98782.97
2022-09-23T22:51:56.149Z,98776.72
2022-09-23T22:55:00.230Z,98781.19
2022-09-23T22:58:21.197Z,98772.25
2022-09-23T23:01:25.800Z,98785.19
2022-09-23T23:04:29.783Z,98775.38
2022-09-23T23:07:36.207Z,98775.59
2022-09-23T23:10:40.981Z,98775.44
2022-09-23T23:13:43.764Z,98768.38
2022-09-23T23:16:46.784Z,98766.06
2022-09-23T23:19:50.552Z,98770.19
2022-09-23T23:22:53.420Z,98766.75
2022-09-23T23:25:57.494Z,98771.59
2022-09-23T23:29:00.914Z,98755.00
2022-09-23T23:32:03.653Z,98750.75
2022-09-23T23:35:06.771Z,98754.06
2022-09-23T23:38:11.305Z,98751.53
2022-09-23T23:41:16.229Z,98742.75
2022-09-23T23:44:18.947Z,98746.69
2022-09-23T23:47:22.220Z,98753.66
2022-09-23T23:50:24.945Z,98746.38
2022-09-23T23:53:30.416Z,98747.53
2022-09-23T23:56:34.435Z,98738.97
2022-09-23T23:59:37.068Z,98749.38
